Sheringham, United Kingdom
Current Conditions -  °F | °C
As of 11:20 PM on Saturday 20 Dec 2014 (Local Time) from EGSH Reporting Station
Clear Clear  
Wind Chill: 35°   Ceiling: Unl
Heat Index: 41°   Visibility: 6mi
Dew Point: 37°   Wind: 9mph
Humidity: 87%   Direction: 250°WSW
Pressure: 30.36"   Gusts: NA
Location:  52.94°N, 1.21°E
Report Text: EGSH 202320Z AUTO 25008KT 9999 NCD 05/03 Q1028
Loading
Personal Weather Stations






























Interactive Weather Map New forecast layout! Learn more

10-Day Weather Forecast

Advertisements
Track Severe Weather on mobile